sensor_id;sensor_type;location;lat;lon;timestamp;P1;durP1;ratioP1;P2;durP2;ratioP2
33836;SDS011;20140;49.356;8.812;2023-06-26T00:00:25;6.97;;;6.27;;
33836;SDS011;20140;49.356;8.812;2023-06-26T00:02:51;7.03;;;6.35;;
33836;SDS011;20140;49.356;8.812;2023-06-26T00:05:16;7.73;;;6.27;;
33836;SDS011;20140;49.356;8.812;2023-06-26T00:07:42;7.20;;;5.97;;
33836;SDS011;20140;49.356;8.812;2023-06-26T00:10:07;6.53;;;5.35;;
33836;SDS011;20140;49.356;8.812;2023-06-26T00:12:33;6.82;;;6.18;;
33836;SDS011;20140;49.356;8.812;2023-06-26T00:14:59;7.73;;;6.47;;
33836;SDS011;20140;49.356;8.812;2023-06-26T00:17:25;7.17;;;5.83;;
33836;SDS011;20140;49.356;8.812;2023-06-26T00:19:50;7.93;;;6.43;;
33836;SDS011;20140;49.356;8.812;2023-06-26T00:22:16;6.80;;;6.10;;
33836;SDS011;20140;49.356;8.812;2023-06-26T00:24:42;7.30;;;6.10;;
33836;SDS011;20140;49.356;8.812;2023-06-26T00:27:09;8.48;;;6.55;;
33836;SDS011;20140;49.356;8.812;2023-06-26T00:29:35;5.83;;;5.23;;
33836;SDS011;20140;49.356;8.812;2023-06-26T00:32:00;7.40;;;6.10;;
33836;SDS011;20140;49.356;8.812;2023-06-26T00:34:26;6.95;;;6.25;;
33836;SDS011;20140;49.356;8.812;2023-06-26T00:36:51;6.53;;;5.80;;
33836;SDS011;20140;49.356;8.812;2023-06-26T00:39:17;7.35;;;6.07;;
33836;SDS011;20140;49.356;8.812;2023-06-26T00:41:43;6.72;;;6.03;;
33836;SDS011;20140;49.356;8.812;2023-06-26T00:44:08;7.35;;;6.55;;
33836;SDS011;20140;49.356;8.812;2023-06-26T00:46:34;8.50;;;6.10;;
33836;SDS011;20140;49.356;8.812;2023-06-26T00:49:00;8.02;;;6.20;;
33836;SDS011;20140;49.356;8.812;2023-06-26T00:51:28;7.27;;;6.13;;
33836;SDS011;20140;49.356;8.812;2023-06-26T00:53:55;7.68;;;6.72;;
33836;SDS011;20140;49.356;8.812;2023-06-26T00:56:21;8.50;;;6.45;;
33836;SDS011;20140;49.356;8.812;2023-06-26T00:58:47;7.78;;;6.57;;
33836;SDS011;20140;49.356;8.812;2023-06-26T01:01:13;7.07;;;6.03;;
33836;SDS011;20140;49.356;8.812;2023-06-26T01:03:45;8.00;;;6.63;;
33836;SDS011;20140;49.356;8.812;2023-06-26T01:06:16;7.20;;;6.45;;
33836;SDS011;20140;49.356;8.812;2023-06-26T01:08:43;7.50;;;6.53;;
33836;SDS011;20140;49.356;8.812;2023-06-26T01:11:09;7.40;;;6.40;;
33836;SDS011;20140;49.356;8.812;2023-06-26T01:13:35;7.93;;;6.75;;
33836;SDS011;20140;49.356;8.812;2023-06-26T01:16:01;7.75;;;6.43;;
33836;SDS011;20140;49.356;8.812;2023-06-26T01:18:29;10.20;;;6.65;;
33836;SDS011;20140;49.356;8.812;2023-06-26T01:20:55;9.13;;;7.05;;
33836;SDS011;20140;49.356;8.812;2023-06-26T01:26:24;8.98;;;6.40;;
33836;SDS011;20140;49.356;8.812;2023-06-26T01:28:52;12.38;;;7.20;;
33836;SDS011;20140;49.356;8.812;2023-06-26T01:31:19;8.55;;;7.03;;
33836;SDS011;20140;49.356;8.812;2023-06-26T01:33:45;7.13;;;6.43;;
33836;SDS011;20140;49.356;8.812;2023-06-26T01:36:12;10.23;;;6.63;;
33836;SDS011;20140;49.356;8.812;2023-06-26T01:38:37;7.72;;;6.78;;
33836;SDS011;20140;49.356;8.812;2023-06-26T01:41:03;8.90;;;6.30;;
33836;SDS011;20140;49.356;8.812;2023-06-26T01:46:35;6.82;;;6.13;;
33836;SDS011;20140;49.356;8.812;2023-06-26T01:49:15;8.68;;;6.70;;
33836;SDS011;20140;49.356;8.812;2023-06-26T01:57:30;8.87;;;6.40;;
33836;SDS011;20140;49.356;8.812;2023-06-26T01:59:57;9.20;;;6.05;;
33836;SDS011;20140;49.356;8.812;2023-06-26T02:02:24;7.57;;;6.50;;
33836;SDS011;20140;49.356;8.812;2023-06-26T02:04:50;6.78;;;6.07;;
33836;SDS011;20140;49.356;8.812;2023-06-26T02:07:16;10.43;;;7.35;;
33836;SDS011;20140;49.356;8.812;2023-06-26T02:09:42;9.63;;;6.72;;
33836;SDS011;20140;49.356;8.812;2023-06-26T02:12:08;9.38;;;6.32;;
33836;SDS011;20140;49.356;8.812;2023-06-26T02:14:34;8.63;;;6.90;;
33836;SDS011;20140;49.356;8.812;2023-06-26T02:16:59;8.93;;;6.43;;
33836;SDS011;20140;49.356;8.812;2023-06-26T02:19:25;10.18;;;6.97;;
33836;SDS011;20140;49.356;8.812;2023-06-26T02:21:52;8.80;;;7.07;;
33836;SDS011;20140;49.356;8.812;2023-06-26T02:24:18;10.40;;;7.43;;
33836;SDS011;20140;49.356;8.812;2023-06-26T02:26:44;7.60;;;6.20;;
33836;SDS011;20140;49.356;8.812;2023-06-26T02:29:10;9.50;;;7.38;;
33836;SDS011;20140;49.356;8.812;2023-06-26T02:31:36;8.57;;;7.68;;
33836;SDS011;20140;49.356;8.812;2023-06-26T02:34:03;9.93;;;6.90;;
33836;SDS011;20140;49.356;8.812;2023-06-26T02:36:29;9.43;;;6.83;;
33836;SDS011;20140;49.356;8.812;2023-06-26T02:38:54;8.53;;;7.10;;
33836;SDS011;20140;49.356;8.812;2023-06-26T02:41:20;13.10;;;9.07;;
33836;SDS011;20140;49.356;8.812;2023-06-26T02:43:46;11.65;;;7.88;;
33836;SDS011;20140;49.356;8.812;2023-06-26T02:46:11;8.32;;;6.75;;
33836;SDS011;20140;49.356;8.812;2023-06-26T02:48:37;11.40;;;7.27;;
33836;SDS011;20140;49.356;8.812;2023-06-26T02:51:02;7.70;;;6.30;;
33836;SDS011;20140;49.356;8.812;2023-06-26T02:53:28;8.60;;;7.07;;
33836;SDS011;20140;49.356;8.812;2023-06-26T02:55:53;8.63;;;6.67;;
33836;SDS011;20140;49.356;8.812;2023-06-26T02:58:19;7.87;;;6.53;;
33836;SDS011;20140;49.356;8.812;2023-06-26T03:00:44;12.90;;;7.03;;
33836;SDS011;20140;49.356;8.812;2023-06-26T03:03:10;10.10;;;7.07;;
33836;SDS011;20140;49.356;8.812;2023-06-26T03:05:35;8.17;;;6.27;;
33836;SDS011;20140;49.356;8.812;2023-06-26T03:08:02;9.77;;;7.35;;
33836;SDS011;20140;49.356;8.812;2023-06-26T03:10:28;8.23;;;6.82;;
33836;SDS011;20140;49.356;8.812;2023-06-26T03:12:53;7.97;;;6.90;;
33836;SDS011;20140;49.356;8.812;2023-06-26T03:15:19;9.70;;;7.87;;
33836;SDS011;20140;49.356;8.812;2023-06-26T03:17:45;6.90;;;6.07;;
33836;SDS011;20140;49.356;8.812;2023-06-26T03:20:10;8.97;;;6.60;;
33836;SDS011;20140;49.356;8.812;2023-06-26T03:22:36;10.18;;;6.10;;
33836;SDS011;20140;49.356;8.812;2023-06-26T03:25:02;8.67;;;6.03;;
33836;SDS011;20140;49.356;8.812;2023-06-26T03:27:28;12.45;;;6.60;;
33836;SDS011;20140;49.356;8.812;2023-06-26T03:29:53;9.05;;;7.38;;
33836;SDS011;20140;49.356;8.812;2023-06-26T03:32:19;12.18;;;7.90;;
33836;SDS011;20140;49.356;8.812;2023-06-26T03:34:44;7.27;;;6.20;;
33836;SDS011;20140;49.356;8.812;2023-06-26T03:37:10;9.13;;;7.00;;
33836;SDS011;20140;49.356;8.812;2023-06-26T03:39:35;10.20;;;6.45;;
33836;SDS011;20140;49.356;8.812;2023-06-26T03:42:01;12.47;;;7.60;;
33836;SDS011;20140;49.356;8.812;2023-06-26T03:44:27;9.03;;;6.40;;
33836;SDS011;20140;49.356;8.812;2023-06-26T03:46:53;9.37;;;6.60;;
33836;SDS011;20140;49.356;8.812;2023-06-26T03:49:19;10.07;;;6.70;;
33836;SDS011;20140;49.356;8.812;2023-06-26T03:51:44;9.40;;;6.93;;
33836;SDS011;20140;49.356;8.812;2023-06-26T03:54:10;10.70;;;6.60;;
33836;SDS011;20140;49.356;8.812;2023-06-26T03:56:36;8.77;;;7.10;;
33836;SDS011;20140;49.356;8.812;2023-06-26T03:59:01;10.80;;;6.82;;
33836;SDS011;20140;49.356;8.812;2023-06-26T04:01:27;8.52;;;6.57;;
33836;SDS011;20140;49.356;8.812;2023-06-26T04:03:53;10.82;;;7.40;;
33836;SDS011;20140;49.356;8.812;2023-06-26T04:06:19;10.07;;;6.60;;
33836;SDS011;20140;49.356;8.812;2023-06-26T04:08:44;7.60;;;6.78;;
33836;SDS011;20140;49.356;8.812;2023-06-26T04:11:10;11.93;;;7.13;;
33836;SDS011;20140;49.356;8.812;2023-06-26T04:13:36;7.37;;;6.13;;
33836;SDS011;20140;49.356;8.812;2023-06-26T04:16:01;10.15;;;6.57;;
33836;SDS011;20140;49.356;8.812;2023-06-26T04:18:27;8.00;;;7.00;;
33836;SDS011;20140;49.356;8.812;2023-06-26T04:21:13;12.40;;;7.27;;
33836;SDS011;20140;49.356;8.812;2023-06-26T04:23:39;8.88;;;7.18;;
33836;SDS011;20140;49.356;8.812;2023-06-26T04:26:05;9.20;;;7.38;;
33836;SDS011;20140;49.356;8.812;2023-06-26T04:28:34;11.40;;;7.13;;
33836;SDS011;20140;49.356;8.812;2023-06-26T04:31:01;11.75;;;7.45;;
33836;SDS011;20140;49.356;8.812;2023-06-26T04:33:28;8.80;;;7.20;;
33836;SDS011;20140;49.356;8.812;2023-06-26T04:35:54;8.07;;;6.90;;
33836;SDS011;20140;49.356;8.812;2023-06-26T04:38:19;8.07;;;6.80;;
33836;SDS011;20140;49.356;8.812;2023-06-26T04:40:46;9.50;;;6.97;;
33836;SDS011;20140;49.356;8.812;2023-06-26T04:43:12;10.65;;;7.72;;
33836;SDS011;20140;49.356;8.812;2023-06-26T04:45:38;9.10;;;6.40;;
33836;SDS011;20140;49.356;8.812;2023-06-26T04:48:03;9.00;;;6.68;;
33836;SDS011;20140;49.356;8.812;2023-06-26T04:50:30;7.68;;;6.47;;
33836;SDS011;20140;49.356;8.812;2023-06-26T04:52:56;10.00;;;7.43;;
33836;SDS011;20140;49.356;8.812;2023-06-26T04:55:23;9.23;;;6.95;;
33836;SDS011;20140;49.356;8.812;2023-06-26T04:57:49;8.10;;;6.80;;
33836;SDS011;20140;49.356;8.812;2023-06-26T05:00:15;7.40;;;6.20;;
33836;SDS011;20140;49.356;8.812;2023-06-26T05:02:41;8.00;;;6.87;;
33836;SDS011;20140;49.356;8.812;2023-06-26T05:05:07;8.33;;;7.20;;
33836;SDS011;20140;49.356;8.812;2023-06-26T05:07:32;9.38;;;6.93;;
33836;SDS011;20140;49.356;8.812;2023-06-26T05:09:58;11.35;;;7.07;;
33836;SDS011;20140;49.356;8.812;2023-06-26T05:12:24;10.27;;;7.53;;
33836;SDS011;20140;49.356;8.812;2023-06-26T05:14:49;9.07;;;7.67;;
33836;SDS011;20140;49.356;8.812;2023-06-26T05:17:15;8.65;;;7.43;;
33836;SDS011;20140;49.356;8.812;2023-06-26T05:19:40;11.05;;;7.63;;
33836;SDS011;20140;49.356;8.812;2023-06-26T05:22:06;9.13;;;7.13;;
33836;SDS011;20140;49.356;8.812;2023-06-26T05:24:35;9.30;;;7.68;;
33836;SDS011;20140;49.356;8.812;2023-06-26T05:27:02;13.57;;;8.60;;
33836;SDS011;20140;49.356;8.812;2023-06-26T05:29:29;11.80;;;7.53;;
33836;SDS011;20140;49.356;8.812;2023-06-26T05:31:58;7.47;;;6.68;;
33836;SDS011;20140;49.356;8.812;2023-06-26T05:34:24;13.35;;;7.47;;
33836;SDS011;20140;49.356;8.812;2023-06-26T05:36:54;10.25;;;7.70;;
33836;SDS011;20140;49.356;8.812;2023-06-26T05:39:22;8.05;;;7.20;;
33836;SDS011;20140;49.356;8.812;2023-06-26T05:41:48;9.85;;;7.65;;
33836;SDS011;20140;49.356;8.812;2023-06-26T05:44:14;7.82;;;6.90;;
33836;SDS011;20140;49.356;8.812;2023-06-26T05:46:39;8.52;;;7.05;;
33836;SDS011;20140;49.356;8.812;2023-06-26T05:49:05;10.07;;;7.50;;
33836;SDS011;20140;49.356;8.812;2023-06-26T05:51:30;9.90;;;7.60;;
33836;SDS011;20140;49.356;8.812;2023-06-26T05:53:56;8.60;;;7.68;;
33836;SDS011;20140;49.356;8.812;2023-06-26T05:56:22;8.98;;;7.07;;
33836;SDS011;20140;49.356;8.812;2023-06-26T05:58:48;9.27;;;7.40;;
33836;SDS011;20140;49.356;8.812;2023-06-26T06:01:14;8.55;;;7.28;;
33836;SDS011;20140;49.356;8.812;2023-06-26T06:03:40;7.88;;;7.07;;
33836;SDS011;20140;49.356;8.812;2023-06-26T06:06:05;8.93;;;7.43;;
33836;SDS011;20140;49.356;8.812;2023-06-26T06:08:31;13.20;;;7.43;;
33836;SDS011;20140;49.356;8.812;2023-06-26T06:10:57;7.87;;;7.07;;
33836;SDS011;20140;49.356;8.812;2023-06-26T06:13:22;10.30;;;7.65;;
33836;SDS011;20140;49.356;8.812;2023-06-26T06:15:48;9.33;;;7.33;;
33836;SDS011;20140;49.356;8.812;2023-06-26T06:18:14;9.53;;;7.63;;
33836;SDS011;20140;49.356;8.812;2023-06-26T06:20:39;9.60;;;7.50;;
33836;SDS011;20140;49.356;8.812;2023-06-26T06:23:05;10.50;;;7.47;;
33836;SDS011;20140;49.356;8.812;2023-06-26T06:25:31;8.60;;;7.70;;
33836;SDS011;20140;49.356;8.812;2023-06-26T06:27:56;8.37;;;7.43;;
33836;SDS011;20140;49.356;8.812;2023-06-26T06:30:22;8.10;;;7.20;;
33836;SDS011;20140;49.356;8.812;2023-06-26T06:32:47;8.93;;;6.80;;
33836;SDS011;20140;49.356;8.812;2023-06-26T06:35:16;10.30;;;7.85;;
33836;SDS011;20140;49.356;8.812;2023-06-26T06:37:44;7.88;;;7.00;;
33836;SDS011;20140;49.356;8.812;2023-06-26T06:40:10;8.03;;;6.93;;
33836;SDS011;20140;49.356;8.812;2023-06-26T06:42:36;10.30;;;7.47;;
33836;SDS011;20140;49.356;8.812;2023-06-26T06:45:02;9.23;;;7.17;;
33836;SDS011;20140;49.356;8.812;2023-06-26T06:47:29;7.80;;;7.00;;
33836;SDS011;20140;49.356;8.812;2023-06-26T06:49:54;7.47;;;6.60;;
33836;SDS011;20140;49.356;8.812;2023-06-26T06:52:20;8.60;;;7.70;;
33836;SDS011;20140;49.356;8.812;2023-06-26T06:54:55;8.83;;;7.80;;
33836;SDS011;20140;49.356;8.812;2023-06-26T06:57:24;10.77;;;8.23;;
33836;SDS011;20140;49.356;8.812;2023-06-26T06:59:50;8.05;;;7.22;;
33836;SDS011;20140;49.356;8.812;2023-06-26T07:02:18;8.75;;;7.07;;
33836;SDS011;20140;49.356;8.812;2023-06-26T07:04:44;9.60;;;6.78;;
33836;SDS011;20140;49.356;8.812;2023-06-26T07:07:10;11.63;;;7.87;;
33836;SDS011;20140;49.356;8.812;2023-06-26T07:09:36;9.40;;;7.63;;
33836;SDS011;20140;49.356;8.812;2023-06-26T07:12:01;7.97;;;6.75;;
33836;SDS011;20140;49.356;8.812;2023-06-26T07:14:27;10.77;;;8.18;;
33836;SDS011;20140;49.356;8.812;2023-06-26T07:16:53;8.93;;;7.85;;
33836;SDS011;20140;49.356;8.812;2023-06-26T07:19:18;10.53;;;7.30;;
33836;SDS011;20140;49.356;8.812;2023-06-26T07:21:44;9.65;;;6.63;;
33836;SDS011;20140;49.356;8.812;2023-06-26T07:24:11;9.57;;;7.25;;
33836;SDS011;20140;49.356;8.812;2023-06-26T07:26:36;10.77;;;8.50;;
33836;SDS011;20140;49.356;8.812;2023-06-26T07:29:02;8.18;;;6.97;;
33836;SDS011;20140;49.356;8.812;2023-06-26T07:31:27;10.80;;;7.63;;
33836;SDS011;20140;49.356;8.812;2023-06-26T07:33:53;10.38;;;8.27;;
33836;SDS011;20140;49.356;8.812;2023-06-26T07:36:18;9.27;;;7.47;;
33836;SDS011;20140;49.356;8.812;2023-06-26T07:38:44;10.75;;;7.97;;
33836;SDS011;20140;49.356;8.812;2023-06-26T07:41:10;8.73;;;7.33;;
33836;SDS011;20140;49.356;8.812;2023-06-26T07:43:35;12.00;;;8.23;;
33836;SDS011;20140;49.356;8.812;2023-06-26T07:46:01;12.97;;;8.17;;
33836;SDS011;20140;49.356;8.812;2023-06-26T07:48:26;8.33;;;7.10;;
33836;SDS011;20140;49.356;8.812;2023-06-26T07:50:52;7.65;;;6.82;;
33836;SDS011;20140;49.356;8.812;2023-06-26T07:53:18;7.73;;;6.70;;
33836;SDS011;20140;49.356;8.812;2023-06-26T07:55:44;8.77;;;7.80;;
33836;SDS011;20140;49.356;8.812;2023-06-26T07:58:10;10.47;;;7.60;;
33836;SDS011;20140;49.356;8.812;2023-06-26T08:00:36;9.65;;;7.47;;
33836;SDS011;20140;49.356;8.812;2023-06-26T08:03:01;9.02;;;6.78;;
33836;SDS011;20140;49.356;8.812;2023-06-26T08:05:27;9.37;;;7.13;;
33836;SDS011;20140;49.356;8.812;2023-06-26T08:07:52;12.67;;;8.60;;
33836;SDS011;20140;49.356;8.812;2023-06-26T08:10:18;9.63;;;7.67;;
33836;SDS011;20140;49.356;8.812;2023-06-26T08:12:44;9.57;;;7.97;;
33836;SDS011;20140;49.356;8.812;2023-06-26T08:15:10;8.60;;;7.63;;
33836;SDS011;20140;49.356;8.812;2023-06-26T08:17:36;10.18;;;8.18;;
33836;SDS011;20140;49.356;8.812;2023-06-26T08:20:03;9.05;;;7.35;;
33836;SDS011;20140;49.356;8.812;2023-06-26T08:22:29;8.55;;;7.75;;
33836;SDS011;20140;49.356;8.812;2023-06-26T08:24:54;9.00;;;7.80;;
33836;SDS011;20140;49.356;8.812;2023-06-26T08:27:20;9.10;;;7.85;;
33836;SDS011;20140;49.356;8.812;2023-06-26T08:29:46;9.60;;;8.13;;
33836;SDS011;20140;49.356;8.812;2023-06-26T08:32:11;9.43;;;8.53;;
33836;SDS011;20140;49.356;8.812;2023-06-26T08:34:37;7.83;;;7.03;;
33836;SDS011;20140;49.356;8.812;2023-06-26T08:37:02;8.30;;;7.50;;
33836;SDS011;20140;49.356;8.812;2023-06-26T08:39:28;8.70;;;7.53;;
33836;SDS011;20140;49.356;8.812;2023-06-26T08:41:53;9.33;;;8.43;;
33836;SDS011;20140;49.356;8.812;2023-06-26T08:44:19;9.40;;;7.72;;
33836;SDS011;20140;49.356;8.812;2023-06-26T08:46:48;9.50;;;8.60;;
33836;SDS011;20140;49.356;8.812;2023-06-26T08:49:14;10.10;;;8.40;;
33836;SDS011;20140;49.356;8.812;2023-06-26T08:51:50;8.70;;;7.70;;
33836;SDS011;20140;49.356;8.812;2023-06-26T08:54:22;9.48;;;7.93;;
33836;SDS011;20140;49.356;8.812;2023-06-26T08:56:53;10.38;;;8.13;;
33836;SDS011;20140;49.356;8.812;2023-06-26T08:59:20;10.07;;;7.30;;
33836;SDS011;20140;49.356;8.812;2023-06-26T09:01:46;9.60;;;7.85;;
33836;SDS011;20140;49.356;8.812;2023-06-26T09:04:12;8.43;;;7.72;;
33836;SDS011;20140;49.356;8.812;2023-06-26T09:06:39;8.50;;;7.70;;
33836;SDS011;20140;49.356;8.812;2023-06-26T09:09:04;8.88;;;8.00;;
33836;SDS011;20140;49.356;8.812;2023-06-26T09:11:30;12.80;;;7.97;;
33836;SDS011;20140;49.356;8.812;2023-06-26T09:13:55;9.73;;;8.75;;
33836;SDS011;20140;49.356;8.812;2023-06-26T09:16:24;9.10;;;8.20;;
33836;SDS011;20140;49.356;8.812;2023-06-26T09:18:53;8.40;;;7.60;;
33836;SDS011;20140;49.356;8.812;2023-06-26T09:21:19;11.35;;;8.35;;
33836;SDS011;20140;49.356;8.812;2023-06-26T09:23:44;8.37;;;7.57;;
33836;SDS011;20140;49.356;8.812;2023-06-26T09:26:11;10.00;;;8.57;;
33836;SDS011;20140;49.356;8.812;2023-06-26T09:28:36;10.93;;;8.32;;
33836;SDS011;20140;49.356;8.812;2023-06-26T09:31:02;9.03;;;8.07;;
33836;SDS011;20140;49.356;8.812;2023-06-26T09:33:33;9.15;;;8.13;;
33836;SDS011;20140;49.356;8.812;2023-06-26T09:36:09;8.90;;;8.00;;
33836;SDS011;20140;49.356;8.812;2023-06-26T09:38:46;8.48;;;7.72;;
33836;SDS011;20140;49.356;8.812;2023-06-26T09:41:15;8.47;;;7.43;;
33836;SDS011;20140;49.356;8.812;2023-06-26T09:43:47;11.93;;;8.73;;
33836;SDS011;20140;49.356;8.812;2023-06-26T09:46:16;9.18;;;8.27;;
33836;SDS011;20140;49.356;8.812;2023-06-26T09:48:42;9.20;;;8.25;;
33836;SDS011;20140;49.356;8.812;2023-06-26T09:51:09;9.85;;;8.85;;
33836;SDS011;20140;49.356;8.812;2023-06-26T09:53:35;9.48;;;8.57;;
33836;SDS011;20140;49.356;8.812;2023-06-26T09:56:10;10.63;;;9.02;;
33836;SDS011;20140;49.356;8.812;2023-06-26T09:58:42;9.75;;;8.73;;
33836;SDS011;20140;49.356;8.812;2023-06-26T10:01:08;10.10;;;9.10;;
33836;SDS011;20140;49.356;8.812;2023-06-26T10:03:34;9.75;;;8.85;;
33836;SDS011;20140;49.356;8.812;2023-06-26T10:06:00;9.70;;;8.80;;
33836;SDS011;20140;49.356;8.812;2023-06-26T10:08:27;9.10;;;8.20;;
33836;SDS011;20140;49.356;8.812;2023-06-26T10:10:53;13.43;;;8.85;;
33836;SDS011;20140;49.356;8.812;2023-06-26T10:13:25;12.38;;;8.93;;
33836;SDS011;20140;49.356;8.812;2023-06-26T10:15:55;9.05;;;8.15;;
33836;SDS011;20140;49.356;8.812;2023-06-26T10:18:24;11.35;;;8.60;;
33836;SDS011;20140;49.356;8.812;2023-06-26T10:20:51;10.17;;;9.17;;
33836;SDS011;20140;49.356;8.812;2023-06-26T10:23:19;9.40;;;8.50;;
33836;SDS011;20140;49.356;8.812;2023-06-26T10:25:46;8.88;;;8.02;;
33836;SDS011;20140;49.356;8.812;2023-06-26T10:28:13;7.57;;;6.87;;
33836;SDS011;20140;49.356;8.812;2023-06-26T10:30:41;10.07;;;9.07;;
33836;SDS011;20140;49.356;8.812;2023-06-26T10:33:09;9.05;;;8.18;;
33836;SDS011;20140;49.356;8.812;2023-06-26T10:35:40;9.02;;;8.18;;
33836;SDS011;20140;49.356;8.812;2023-06-26T10:38:09;8.88;;;8.07;;
33836;SDS011;20140;49.356;8.812;2023-06-26T10:40:45;10.03;;;7.60;;
33836;SDS011;20140;49.356;8.812;2023-06-26T10:43:12;11.38;;;10.27;;
33836;SDS011;20140;49.356;8.812;2023-06-26T10:45:45;8.98;;;8.05;;
33836;SDS011;20140;49.356;8.812;2023-06-26T10:48:15;9.55;;;8.55;;
33836;SDS011;20140;49.356;8.812;2023-06-26T10:50:40;8.82;;;7.95;;
33836;SDS011;20140;49.356;8.812;2023-06-26T10:53:10;8.87;;;8.07;;
33836;SDS011;20140;49.356;8.812;2023-06-26T10:55:50;8.82;;;7.95;;
33836;SDS011;20140;49.356;8.812;2023-06-26T10:58:31;8.02;;;7.32;;
33836;SDS011;20140;49.356;8.812;2023-06-26T11:03:48;9.80;;;8.02;;
33836;SDS011;20140;49.356;8.812;2023-06-26T11:06:22;9.57;;;8.25;;
33836;SDS011;20140;49.356;8.812;2023-06-26T11:08:49;8.67;;;7.77;;
33836;SDS011;20140;49.356;8.812;2023-06-26T11:11:18;8.27;;;7.50;;
33836;SDS011;20140;49.356;8.812;2023-06-26T11:13:45;9.25;;;7.93;;
33836;SDS011;20140;49.356;8.812;2023-06-26T11:16:14;10.38;;;9.45;;
33836;SDS011;20140;49.356;8.812;2023-06-26T11:18:40;8.80;;;7.90;;
33836;SDS011;20140;49.356;8.812;2023-06-26T11:21:11;9.43;;;8.35;;
33836;SDS011;20140;49.356;8.812;2023-06-26T11:23:39;9.15;;;8.13;;
33836;SDS011;20140;49.356;8.812;2023-06-26T11:26:38;10.02;;;8.63;;
33836;SDS011;20140;49.356;8.812;2023-06-26T11:29:02;9.70;;;8.80;;
33836;SDS011;20140;49.356;8.812;2023-06-26T11:34:00;12.20;;;8.88;;
33836;SDS011;20140;49.356;8.812;2023-06-26T11:36:37;9.77;;;8.82;;
33836;SDS011;20140;49.356;8.812;2023-06-26T11:39:06;9.85;;;8.68;;
33836;SDS011;20140;49.356;8.812;2023-06-26T11:41:32;9.68;;;8.68;;
33836;SDS011;20140;49.356;8.812;2023-06-26T11:46:29;10.60;;;9.15;;
33836;SDS011;20140;49.356;8.812;2023-06-26T11:48:55;12.60;;;9.13;;
33836;SDS011;20140;49.356;8.812;2023-06-26T11:51:21;9.80;;;8.60;;
33836;SDS011;20140;49.356;8.812;2023-06-26T11:53:47;9.80;;;8.90;;
33836;SDS011;20140;49.356;8.812;2023-06-26T11:56:17;13.32;;;8.63;;
33836;SDS011;20140;49.356;8.812;2023-06-26T12:01:33;10.07;;;9.07;;
33836;SDS011;20140;49.356;8.812;2023-06-26T12:04:00;10.82;;;9.35;;
33836;SDS011;20140;49.356;8.812;2023-06-26T12:06:28;11.07;;;10.00;;
33836;SDS011;20140;49.356;8.812;2023-06-26T12:09:00;9.70;;;8.80;;
33836;SDS011;20140;49.356;8.812;2023-06-26T12:11:26;9.93;;;8.97;;
33836;SDS011;20140;49.356;8.812;2023-06-26T12:13:53;10.07;;;9.10;;
33836;SDS011;20140;49.356;8.812;2023-06-26T12:16:19;9.50;;;8.60;;
33836;SDS011;20140;49.356;8.812;2023-06-26T12:18:45;8.68;;;7.75;;
33836;SDS011;20140;49.356;8.812;2023-06-26T12:23:58;9.97;;;8.63;;
33836;SDS011;20140;49.356;8.812;2023-06-26T12:26:25;10.77;;;9.07;;
33836;SDS011;20140;49.356;8.812;2023-06-26T12:28:51;8.45;;;7.68;;
33836;SDS011;20140;49.356;8.812;2023-06-26T12:31:17;8.90;;;8.10;;
33836;SDS011;20140;49.356;8.812;2023-06-26T12:33:46;12.37;;;8.67;;
33836;SDS011;20140;49.356;8.812;2023-06-26T12:36:12;8.80;;;7.90;;
33836;SDS011;20140;49.356;8.812;2023-06-26T12:38:38;7.45;;;6.65;;
33836;SDS011;20140;49.356;8.812;2023-06-26T12:41:04;8.93;;;8.13;;
33836;SDS011;20140;49.356;8.812;2023-06-26T12:43:30;9.20;;;8.37;;
33836;SDS011;20140;49.356;8.812;2023-06-26T12:45:55;10.30;;;7.35;;
33836;SDS011;20140;49.356;8.812;2023-06-26T12:48:21;7.33;;;6.63;;
33836;SDS011;20140;49.356;8.812;2023-06-26T12:51:07;7.87;;;6.73;;
33836;SDS011;20140;49.356;8.812;2023-06-26T12:53:33;8.02;;;6.38;;
33836;SDS011;20140;49.356;8.812;2023-06-26T12:55:59;6.82;;;6.05;;
33836;SDS011;20140;49.356;8.812;2023-06-26T12:58:24;7.32;;;6.03;;
33836;SDS011;20140;49.356;8.812;2023-06-26T13:00:50;6.47;;;5.03;;
33836;SDS011;20140;49.356;8.812;2023-06-26T13:03:15;6.60;;;5.47;;
33836;SDS011;20140;49.356;8.812;2023-06-26T13:05:41;6.57;;;5.40;;
33836;SDS011;20140;49.356;8.812;2023-06-26T13:08:07;7.67;;;5.17;;
33836;SDS011;20140;49.356;8.812;2023-06-26T13:10:33;6.35;;;4.28;;
33836;SDS011;20140;49.356;8.812;2023-06-26T13:13:00;5.15;;;4.75;;
33836;SDS011;20140;49.356;8.812;2023-06-26T13:15:25;5.57;;;4.97;;
33836;SDS011;20140;49.356;8.812;2023-06-26T13:17:51;6.53;;;5.55;;
33836;SDS011;20140;49.356;8.812;2023-06-26T13:20:17;6.40;;;4.90;;
33836;SDS011;20140;49.356;8.812;2023-06-26T13:22:42;5.03;;;4.53;;
33836;SDS011;20140;49.356;8.812;2023-06-26T13:25:08;4.90;;;4.40;;
33836;SDS011;20140;49.356;8.812;2023-06-26T13:27:33;5.87;;;3.87;;
33836;SDS011;20140;49.356;8.812;2023-06-26T13:29:59;6.87;;;4.90;;
33836;SDS011;20140;49.356;8.812;2023-06-26T13:32:25;6.70;;;4.68;;
33836;SDS011;20140;49.356;8.812;2023-06-26T13:34:50;6.77;;;4.60;;
33836;SDS011;20140;49.356;8.812;2023-06-26T13:37:17;6.33;;;4.67;;
33836;SDS011;20140;49.356;8.812;2023-06-26T13:39:42;6.63;;;4.70;;
33836;SDS011;20140;49.356;8.812;2023-06-26T13:42:14;8.80;;;5.07;;
33836;SDS011;20140;49.356;8.812;2023-06-26T13:44:40;4.88;;;4.28;;
33836;SDS011;20140;49.356;8.812;2023-06-26T13:47:06;5.53;;;5.03;;
33836;SDS011;20140;49.356;8.812;2023-06-26T13:49:32;6.05;;;4.35;;
33836;SDS011;20140;49.356;8.812;2023-06-26T13:51:57;8.07;;;5.97;;
33836;SDS011;20140;49.356;8.812;2023-06-26T13:54:23;6.43;;;5.37;;
33836;SDS011;20140;49.356;8.812;2023-06-26T13:56:48;7.50;;;5.65;;
33836;SDS011;20140;49.356;8.812;2023-06-26T13:59:13;7.10;;;5.13;;
33836;SDS011;20140;49.356;8.812;2023-06-26T14:01:39;7.17;;;6.47;;
33836;SDS011;20140;49.356;8.812;2023-06-26T14:04:07;7.18;;;5.80;;
33836;SDS011;20140;49.356;8.812;2023-06-26T14:06:33;7.57;;;6.27;;
33836;SDS011;20140;49.356;8.812;2023-06-26T14:08:59;7.82;;;7.00;;
33836;SDS011;20140;49.356;8.812;2023-06-26T14:11:25;8.27;;;6.90;;
33836;SDS011;20140;49.356;8.812;2023-06-26T14:13:51;10.83;;;7.60;;
33836;SDS011;20140;49.356;8.812;2023-06-26T14:16:16;8.88;;;7.97;;
33836;SDS011;20140;49.356;8.812;2023-06-26T14:18:43;9.20;;;7.72;;
33836;SDS011;20140;49.356;8.812;2023-06-26T14:21:09;8.05;;;7.28;;
33836;SDS011;20140;49.356;8.812;2023-06-26T14:23:34;15.83;;;7.53;;
33836;SDS011;20140;49.356;8.812;2023-06-26T14:26:00;8.82;;;7.35;;
33836;SDS011;20140;49.356;8.812;2023-06-26T14:28:26;12.55;;;8.85;;
33836;SDS011;20140;49.356;8.812;2023-06-26T14:30:51;8.87;;;7.97;;
33836;SDS011;20140;49.356;8.812;2023-06-26T14:33:17;10.93;;;9.27;;
33836;SDS011;20140;49.356;8.812;2023-06-26T14:35:42;7.07;;;6.38;;
33836;SDS011;20140;49.356;8.812;2023-06-26T14:38:08;11.43;;;8.95;;
33836;SDS011;20140;49.356;8.812;2023-06-26T14:40:33;9.17;;;7.67;;
33836;SDS011;20140;49.356;8.812;2023-06-26T14:42:59;8.23;;;6.10;;
33836;SDS011;20140;49.356;8.812;2023-06-26T14:45:24;8.95;;;6.78;;
33836;SDS011;20140;49.356;8.812;2023-06-26T14:47:50;6.78;;;6.03;;
33836;SDS011;20140;49.356;8.812;2023-06-26T14:50:15;5.73;;;4.70;;
33836;SDS011;20140;49.356;8.812;2023-06-26T14:52:41;6.03;;;3.72;;
33836;SDS011;20140;49.356;8.812;2023-06-26T14:55:06;7.82;;;5.30;;
33836;SDS011;20140;49.356;8.812;2023-06-26T14:57:32;5.32;;;4.68;;
33836;SDS011;20140;49.356;8.812;2023-06-26T14:59:58;5.77;;;4.47;;
33836;SDS011;20140;49.356;8.812;2023-06-26T15:02:23;4.60;;;3.17;;
33836;SDS011;20140;49.356;8.812;2023-06-26T15:04:49;3.80;;;2.67;;
33836;SDS011;20140;49.356;8.812;2023-06-26T15:07:14;4.32;;;3.20;;